sensor_id;sensor_type;location;lat;lon;timestamp;pressure;altitude;pressure_sealevel;temperature;humidity
59435;BME280;45241;49.768;8.636;2022-12-18T00:02:01;101532.28;;;-4.86;70.20
59435;BME280;45241;49.768;8.636;2022-12-18T00:04:26;101535.53;;;-5.01;69.11
59435;BME280;45241;49.768;8.636;2022-12-18T00:06:52;101541.38;;;-5.40;69.88
59435;BME280;45241;49.768;8.636;2022-12-18T00:09:18;101530.50;;;-5.29;70.90
59435;BME280;45241;49.768;8.636;2022-12-18T00:11:43;101532.06;;;-5.02;70.00
59435;BME280;45241;49.768;8.636;2022-12-18T00:14:09;101529.47;;;-4.81;69.88
59435;BME280;45241;49.768;8.636;2022-12-18T00:16:35;101518.25;;;-5.27;70.75
59435;BME280;45241;49.768;8.636;2022-12-18T00:19:02;101513.31;;;-5.58;70.58
59435;BME280;45241;49.768;8.636;2022-12-18T00:21:28;101520.75;;;-5.48;70.46
59435;BME280;45241;49.768;8.636;2022-12-18T00:23:54;101522.00;;;-5.58;70.48
59435;BME280;45241;49.768;8.636;2022-12-18T00:26:20;101527.72;;;-5.95;71.76
59435;BME280;45241;49.768;8.636;2022-12-18T00:28:46;101537.44;;;-5.98;71.23
59435;BME280;45241;49.768;8.636;2022-12-18T00:31:13;101551.09;;;-5.67;71.52
59435;BME280;45241;49.768;8.636;2022-12-18T00:33:39;101548.72;;;-5.50;70.85
59435;BME280;45241;49.768;8.636;2022-12-18T00:36:07;101552.34;;;-5.08;69.19
59435;BME280;45241;49.768;8.636;2022-12-18T00:38:33;101553.63;;;-4.97;69.11
59435;BME280;45241;49.768;8.636;2022-12-18T00:40:58;101539.09;;;-5.04;69.79
59435;BME280;45241;49.768;8.636;2022-12-18T00:43:23;101529.53;;;-5.05;69.47
59435;BME280;45241;49.768;8.636;2022-12-18T00:45:48;101522.97;;;-5.15;70.55
59435;BME280;45241;49.768;8.636;2022-12-18T00:48:14;101523.28;;;-5.23;71.00
59435;BME280;45241;49.768;8.636;2022-12-18T00:50:39;101532.13;;;-6.47;72.85
59435;BME280;45241;49.768;8.636;2022-12-18T00:53:04;101524.47;;;-5.77;72.96
59435;BME280;45241;49.768;8.636;2022-12-18T00:55:29;101520.19;;;-5.79;72.19
59435;BME280;45241;49.768;8.636;2022-12-18T00:57:54;101521.34;;;-5.63;72.05
59435;BME280;45241;49.768;8.636;2022-12-18T01:00:20;101513.31;;;-5.58;71.56
59435;BME280;45241;49.768;8.636;2022-12-18T01:02:45;101518.72;;;-5.39;70.57
59435;BME280;45241;49.768;8.636;2022-12-18T01:05:11;101535.78;;;-5.31;69.99
59435;BME280;45241;49.768;8.636;2022-12-18T01:07:37;101529.78;;;-5.33;70.61
59435;BME280;45241;49.768;8.636;2022-12-18T01:10:02;101527.34;;;-4.94;70.21
59435;BME280;45241;49.768;8.636;2022-12-18T01:12:28;101532.31;;;-5.31;68.74
59435;BME280;45241;49.768;8.636;2022-12-18T01:14:53;101535.47;;;-5.45;69.57
59435;BME280;45241;49.768;8.636;2022-12-18T01:17:18;101532.84;;;-5.45;70.11
59435;BME280;45241;49.768;8.636;2022-12-18T01:19:43;101516.50;;;-5.28;70.13
59435;BME280;45241;49.768;8.636;2022-12-18T01:22:08;101531.94;;;-5.44;70.54
59435;BME280;45241;49.768;8.636;2022-12-18T01:24:34;101519.56;;;-5.86;70.36
59435;BME280;45241;49.768;8.636;2022-12-18T01:26:59;101519.28;;;-5.55;69.51
59435;BME280;45241;49.768;8.636;2022-12-18T01:29:24;101527.69;;;-5.70;69.74
59435;BME280;45241;49.768;8.636;2022-12-18T01:31:49;101520.88;;;-5.74;69.61
59435;BME280;45241;49.768;8.636;2022-12-18T01:34:14;101523.78;;;-6.07;70.87
59435;BME280;45241;49.768;8.636;2022-12-18T01:36:40;101526.53;;;-5.86;71.39
59435;BME280;45241;49.768;8.636;2022-12-18T01:39:06;101535.75;;;-5.76;70.03
59435;BME280;45241;49.768;8.636;2022-12-18T01:41:32;101543.72;;;-5.79;69.76
59435;BME280;45241;49.768;8.636;2022-12-18T01:47:00;101550.75;;;-5.58;68.16
59435;BME280;45241;49.768;8.636;2022-12-18T01:49:26;101555.97;;;-5.58;68.83
59435;BME280;45241;49.768;8.636;2022-12-18T01:51:51;101562.69;;;-5.99;68.77
59435;BME280;45241;49.768;8.636;2022-12-18T01:54:16;101561.03;;;-6.01;69.32
59435;BME280;45241;49.768;8.636;2022-12-18T01:56:42;101559.50;;;-5.59;67.93
59435;BME280;45241;49.768;8.636;2022-12-18T01:59:07;101553.81;;;-5.47;67.79
59435;BME280;45241;49.768;8.636;2022-12-18T02:01:34;101547.94;;;-5.30;67.56
59435;BME280;45241;49.768;8.636;2022-12-18T02:04:23;101543.94;;;-5.62;68.12
59435;BME280;45241;49.768;8.636;2022-12-18T02:06:50;101539.72;;;-5.89;68.22
59435;BME280;45241;49.768;8.636;2022-12-18T02:09:24;101533.53;;;-6.12;67.94
59435;BME280;45241;49.768;8.636;2022-12-18T02:14:38;101545.28;;;-5.75;67.60
59435;BME280;45241;49.768;8.636;2022-12-18T02:17:21;101547.63;;;-6.16;67.83
59435;BME280;45241;49.768;8.636;2022-12-18T02:22:21;101549.31;;;-5.90;68.13
59435;BME280;45241;49.768;8.636;2022-12-18T02:25:11;101546.34;;;-6.04;69.14
59435;BME280;45241;49.768;8.636;2022-12-18T02:27:37;101532.22;;;-6.23;68.44
59435;BME280;45241;49.768;8.636;2022-12-18T02:30:04;101535.97;;;-6.07;68.24
59435;BME280;45241;49.768;8.636;2022-12-18T02:32:31;101524.84;;;-5.64;67.04
59435;BME280;45241;49.768;8.636;2022-12-18T02:34:57;101514.16;;;-5.58;66.37
59435;BME280;45241;49.768;8.636;2022-12-18T02:37:24;101506.69;;;-5.90;66.92
59435;BME280;45241;49.768;8.636;2022-12-18T02:39:51;101512.59;;;-6.35;68.64
59435;BME280;45241;49.768;8.636;2022-12-18T02:42:18;101503.25;;;-6.16;67.39
59435;BME280;45241;49.768;8.636;2022-12-18T02:44:47;101497.25;;;-6.19;68.05
59435;BME280;45241;49.768;8.636;2022-12-18T02:47:13;101491.00;;;-5.90;67.80
59435;BME280;45241;49.768;8.636;2022-12-18T02:49:51;101489.34;;;-6.16;67.39
59435;BME280;45241;49.768;8.636;2022-12-18T02:55:13;101493.66;;;-6.15;67.21
59435;BME280;45241;49.768;8.636;2022-12-18T03:00:18;101493.06;;;-6.23;66.93
59435;BME280;45241;49.768;8.636;2022-12-18T03:02:49;101516.06;;;-6.10;66.91
59435;BME280;45241;49.768;8.636;2022-12-18T03:05:23;101511.59;;;-6.06;66.50
59435;BME280;45241;49.768;8.636;2022-12-18T03:08:10;101518.63;;;-6.33;67.38
59435;BME280;45241;49.768;8.636;2022-12-18T03:10:39;101523.41;;;-5.96;66.04
59435;BME280;45241;49.768;8.636;2022-12-18T03:13:08;101520.06;;;-5.99;65.78
59435;BME280;45241;49.768;8.636;2022-12-18T03:15:37;101527.56;;;-6.40;66.18
59435;BME280;45241;49.768;8.636;2022-12-18T03:18:06;101526.03;;;-6.21;66.42
59435;BME280;45241;49.768;8.636;2022-12-18T03:20:34;101536.69;;;-6.02;65.83
59435;BME280;45241;49.768;8.636;2022-12-18T03:23:07;101532.78;;;-5.90;65.88
59435;BME280;45241;49.768;8.636;2022-12-18T03:25:34;101538.34;;;-5.99;65.87
59435;BME280;45241;49.768;8.636;2022-12-18T03:28:03;101546.19;;;-5.76;65.61
59435;BME280;45241;49.768;8.636;2022-12-18T03:30:30;101541.59;;;-6.18;65.44
59435;BME280;45241;49.768;8.636;2022-12-18T03:33:00;101537.06;;;-6.13;65.99
59435;BME280;45241;49.768;8.636;2022-12-18T03:35:28;101532.19;;;-5.98;65.65
59435;BME280;45241;49.768;8.636;2022-12-18T03:37:54;101525.78;;;-6.13;65.81
59435;BME280;45241;49.768;8.636;2022-12-18T03:40:24;101512.00;;;-5.93;65.05
59435;BME280;45241;49.768;8.636;2022-12-18T03:42:52;101504.09;;;-5.68;65.31
59435;BME280;45241;49.768;8.636;2022-12-18T03:45:34;101492.31;;;-6.27;66.11
59435;BME280;45241;49.768;8.636;2022-12-18T03:52:57;101487.00;;;-6.24;68.55
59435;BME280;45241;49.768;8.636;2022-12-18T03:55:25;101481.19;;;-5.84;67.26
59435;BME280;45241;49.768;8.636;2022-12-18T03:57:52;101487.38;;;-5.86;67.68
59435;BME280;45241;49.768;8.636;2022-12-18T04:00:18;101504.31;;;-8.14;75.29
59435;BME280;45241;49.768;8.636;2022-12-18T04:02:48;101509.84;;;-6.82;73.66
59435;BME280;45241;49.768;8.636;2022-12-18T04:05:15;101502.91;;;-6.07;70.16
59435;BME280;45241;49.768;8.636;2022-12-18T04:07:42;101507.56;;;-6.15;68.52
59435;BME280;45241;49.768;8.636;2022-12-18T04:10:11;101509.28;;;-5.90;67.67
59435;BME280;45241;49.768;8.636;2022-12-18T04:12:37;101500.88;;;-5.75;67.35
59435;BME280;45241;49.768;8.636;2022-12-18T04:15:02;101504.50;;;-6.03;67.13
59435;BME280;45241;49.768;8.636;2022-12-18T04:17:28;101512.13;;;-6.71;69.95
59435;BME280;45241;49.768;8.636;2022-12-18T04:19:53;101511.59;;;-6.56;68.53
59435;BME280;45241;49.768;8.636;2022-12-18T04:22:18;101501.84;;;-6.51;68.96
59435;BME280;45241;49.768;8.636;2022-12-18T04:24:43;101504.22;;;-6.20;66.53
59435;BME280;45241;49.768;8.636;2022-12-18T04:27:08;101512.72;;;-6.13;66.72
59435;BME280;45241;49.768;8.636;2022-12-18T04:29:34;101512.59;;;-6.35;67.37
59435;BME280;45241;49.768;8.636;2022-12-18T04:31:59;101496.63;;;-6.51;67.20
59435;BME280;45241;49.768;8.636;2022-12-18T04:34:24;101501.13;;;-6.29;67.43
59435;BME280;45241;49.768;8.636;2022-12-18T04:36:49;101498.09;;;-6.42;67.63
59435;BME280;45241;49.768;8.636;2022-12-18T04:39:14;101500.53;;;-6.13;67.44
59435;BME280;45241;49.768;8.636;2022-12-18T04:41:43;101495.16;;;-6.59;67.93
59435;BME280;45241;49.768;8.636;2022-12-18T04:44:08;101493.31;;;-6.81;70.32
59435;BME280;45241;49.768;8.636;2022-12-18T04:46:33;101491.91;;;-6.15;68.42
59435;BME280;45241;49.768;8.636;2022-12-18T04:48:58;101482.00;;;-6.07;67.90
59435;BME280;45241;49.768;8.636;2022-12-18T04:51:24;101482.47;;;-6.19;68.14
59435;BME280;45241;49.768;8.636;2022-12-18T04:53:49;101492.38;;;-7.06;69.47
59435;BME280;45241;49.768;8.636;2022-12-18T04:56:14;101495.34;;;-6.90;68.32
59435;BME280;45241;49.768;8.636;2022-12-18T04:58:41;101507.22;;;-7.08;70.38
59435;BME280;45241;49.768;8.636;2022-12-18T05:01:06;101513.19;;;-7.05;73.33
59435;BME280;45241;49.768;8.636;2022-12-18T05:03:32;101503.19;;;-6.39;69.50
59435;BME280;45241;49.768;8.636;2022-12-18T05:05:57;101509.81;;;-6.29;69.33
59435;BME280;45241;49.768;8.636;2022-12-18T05:08:23;101516.50;;;-6.22;67.63
59435;BME280;45241;49.768;8.636;2022-12-18T05:10:48;101511.81;;;-6.37;67.11
59435;BME280;45241;49.768;8.636;2022-12-18T05:13:13;101515.28;;;-6.37;66.94
59435;BME280;45241;49.768;8.636;2022-12-18T05:15:38;101522.84;;;-6.29;68.13
59435;BME280;45241;49.768;8.636;2022-12-18T05:18:03;101523.94;;;-6.36;67.95
59435;BME280;45241;49.768;8.636;2022-12-18T05:20:29;101526.41;;;-6.31;67.52
59435;BME280;45241;49.768;8.636;2022-12-18T05:22:54;101541.03;;;-6.79;68.31
59435;BME280;45241;49.768;8.636;2022-12-18T05:25:20;101533.13;;;-7.60;69.66
59435;BME280;45241;49.768;8.636;2022-12-18T05:27:45;101540.00;;;-6.48;68.30
59435;BME280;45241;49.768;8.636;2022-12-18T05:30:11;101537.69;;;-6.56;68.13
59435;BME280;45241;49.768;8.636;2022-12-18T05:32:36;101542.50;;;-6.44;66.95
59435;BME280;45241;49.768;8.636;2022-12-18T05:35:01;101540.47;;;-6.88;67.07
59435;BME280;45241;49.768;8.636;2022-12-18T05:37:27;101536.72;;;-6.53;67.18
59435;BME280;45241;49.768;8.636;2022-12-18T05:39:52;101530.78;;;-6.58;66.60
59435;BME280;45241;49.768;8.636;2022-12-18T05:42:17;101527.81;;;-6.48;66.45
59435;BME280;45241;49.768;8.636;2022-12-18T05:44:43;101526.72;;;-6.41;66.03
59435;BME280;45241;49.768;8.636;2022-12-18T05:47:08;101527.56;;;-6.40;65.88
59435;BME280;45241;49.768;8.636;2022-12-18T05:49:33;101513.78;;;-6.44;67.54
59435;BME280;45241;49.768;8.636;2022-12-18T05:51:59;101507.19;;;-6.29;68.17
59435;BME280;45241;49.768;8.636;2022-12-18T05:54:26;101502.72;;;-7.30;70.16
59435;BME280;45241;49.768;8.636;2022-12-18T05:56:51;101501.56;;;-6.68;68.58
59435;BME280;45241;49.768;8.636;2022-12-18T05:59:16;101504.19;;;-6.68;69.02
59435;BME280;45241;49.768;8.636;2022-12-18T06:01:41;101513.38;;;-7.11;71.10
59435;BME280;45241;49.768;8.636;2022-12-18T06:04:08;101497.00;;;-6.62;68.01
59435;BME280;45241;49.768;8.636;2022-12-18T06:06:33;101498.69;;;-6.60;67.53
59435;BME280;45241;49.768;8.636;2022-12-18T06:08:58;101506.25;;;-6.53;66.33
59435;BME280;45241;49.768;8.636;2022-12-18T06:11:24;101531.16;;;-6.69;66.64
59435;BME280;45241;49.768;8.636;2022-12-18T06:13:50;101533.78;;;-7.83;70.76
59435;BME280;45241;49.768;8.636;2022-12-18T06:16:16;101540.00;;;-7.57;70.49
59435;BME280;45241;49.768;8.636;2022-12-18T06:18:41;101551.81;;;-7.17;67.94
59435;BME280;45241;49.768;8.636;2022-12-18T06:21:06;101551.97;;;-6.94;66.68
59435;BME280;45241;49.768;8.636;2022-12-18T06:23:31;101546.44;;;-6.85;67.14
59435;BME280;45241;49.768;8.636;2022-12-18T06:25:57;101552.94;;;-6.72;66.57
59435;BME280;45241;49.768;8.636;2022-12-18T06:28:22;101559.00;;;-6.70;66.20
59435;BME280;45241;49.768;8.636;2022-12-18T06:30:47;101557.75;;;-6.58;65.92
59435;BME280;45241;49.768;8.636;2022-12-18T06:33:13;101563.88;;;-7.43;68.92
59435;BME280;45241;49.768;8.636;2022-12-18T06:35:39;101569.97;;;-6.34;67.75
59435;BME280;45241;49.768;8.636;2022-12-18T06:38:04;101579.94;;;-6.45;66.97
59435;BME280;45241;49.768;8.636;2022-12-18T06:40:29;101577.53;;;-6.26;68.36
59435;BME280;45241;49.768;8.636;2022-12-18T06:42:55;101572.44;;;-6.29;69.02
59435;BME280;45241;49.768;8.636;2022-12-18T06:45:20;101575.63;;;-6.21;68.28
59435;BME280;45241;49.768;8.636;2022-12-18T06:47:45;101576.81;;;-6.05;69.30
59435;BME280;45241;49.768;8.636;2022-12-18T06:50:11;101595.31;;;-6.37;71.72
59435;BME280;45241;49.768;8.636;2022-12-18T06:52:36;101598.09;;;-7.26;75.55
59435;BME280;45241;49.768;8.636;2022-12-18T06:55:02;101591.56;;;-6.28;73.66
59435;BME280;45241;49.768;8.636;2022-12-18T06:57:27;101594.78;;;-6.22;74.23
59435;BME280;45241;49.768;8.636;2022-12-18T06:59:52;101597.03;;;-6.11;74.20
59435;BME280;45241;49.768;8.636;2022-12-18T07:02:17;101594.97;;;-6.01;73.60
59435;BME280;45241;49.768;8.636;2022-12-18T07:04:42;101597.88;;;-6.36;76.83
59435;BME280;45241;49.768;8.636;2022-12-18T07:07:08;101599.69;;;-7.80;85.18
59435;BME280;45241;49.768;8.636;2022-12-18T07:09:33;101598.41;;;-6.79;82.91
59435;BME280;45241;49.768;8.636;2022-12-18T07:11:58;101606.69;;;-6.40;78.03
59435;BME280;45241;49.768;8.636;2022-12-18T07:14:23;101612.13;;;-7.92;86.07
59435;BME280;45241;49.768;8.636;2022-12-18T07:16:48;101611.75;;;-7.17;85.00
59435;BME280;45241;49.768;8.636;2022-12-18T07:19:14;101622.47;;;-6.43;79.39
59435;BME280;45241;49.768;8.636;2022-12-18T07:21:39;101620.16;;;-6.52;80.54
59435;BME280;45241;49.768;8.636;2022-12-18T07:24:04;101618.53;;;-6.03;76.67
59435;BME280;45241;49.768;8.636;2022-12-18T07:26:30;101600.25;;;-5.78;75.59
59435;BME280;45241;49.768;8.636;2022-12-18T07:28:57;101609.81;;;-5.77;74.76
59435;BME280;45241;49.768;8.636;2022-12-18T07:31:22;101605.00;;;-5.89;74.55
59435;BME280;45241;49.768;8.636;2022-12-18T07:33:48;101601.06;;;-5.76;74.53
59435;BME280;45241;49.768;8.636;2022-12-18T07:36:14;101605.13;;;-6.72;78.55
59435;BME280;45241;49.768;8.636;2022-12-18T07:38:39;101602.56;;;-6.47;77.79
59435;BME280;45241;49.768;8.636;2022-12-18T07:41:05;101593.88;;;-6.21;75.95
59435;BME280;45241;49.768;8.636;2022-12-18T07:43:31;101588.72;;;-6.22;75.47
59435;BME280;45241;49.768;8.636;2022-12-18T07:45:56;101592.38;;;-6.01;74.06
59435;BME280;45241;49.768;8.636;2022-12-18T07:48:21;101598.88;;;-6.66;74.97
59435;BME280;45241;49.768;8.636;2022-12-18T07:50:46;101597.66;;;-6.82;77.16
59435;BME280;45241;49.768;8.636;2022-12-18T07:53:12;101592.41;;;-6.54;75.49
59435;BME280;45241;49.768;8.636;2022-12-18T07:55:37;101593.09;;;-6.23;73.97
59435;BME280;45241;49.768;8.636;2022-12-18T07:58:02;101596.34;;;-6.16;72.75
59435;BME280;45241;49.768;8.636;2022-12-18T08:00:28;101607.50;;;-6.92;74.21
59435;BME280;45241;49.768;8.636;2022-12-18T08:02:53;101601.00;;;-5.99;73.18
59435;BME280;45241;49.768;8.636;2022-12-18T08:05:18;101611.25;;;-6.46;74.83
59435;BME280;45241;49.768;8.636;2022-12-18T08:07:45;101609.03;;;-6.30;74.68
59435;BME280;45241;49.768;8.636;2022-12-18T08:10:10;101618.41;;;-6.00;74.13
59435;BME280;45241;49.768;8.636;2022-12-18T08:12:35;101619.75;;;-5.88;73.10
59435;BME280;45241;49.768;8.636;2022-12-18T08:15:01;101631.97;;;-6.96;75.92
59435;BME280;45241;49.768;8.636;2022-12-18T08:17:26;101624.47;;;-7.07;77.09
59435;BME280;45241;49.768;8.636;2022-12-18T08:19:51;101631.09;;;-7.56;80.22
59435;BME280;45241;49.768;8.636;2022-12-18T08:22:16;101629.72;;;-8.00;82.58
59435;BME280;45241;49.768;8.636;2022-12-18T08:24:42;101623.47;;;-7.62;84.00
59435;BME280;45241;49.768;8.636;2022-12-18T08:27:07;101626.94;;;-7.61;83.93
59435;BME280;45241;49.768;8.636;2022-12-18T08:29:32;101630.50;;;-7.34;82.80
59435;BME280;45241;49.768;8.636;2022-12-18T08:31:58;101626.31;;;-6.28;78.66
59435;BME280;45241;49.768;8.636;2022-12-18T08:34:23;101627.00;;;-5.96;75.92
59435;BME280;45241;49.768;8.636;2022-12-18T08:36:49;101624.56;;;-6.01;75.49
59435;BME280;45241;49.768;8.636;2022-12-18T08:39:14;101631.13;;;-5.89;75.44
59435;BME280;45241;49.768;8.636;2022-12-18T08:41:39;101621.03;;;-6.00;75.85
59435;BME280;45241;49.768;8.636;2022-12-18T08:44:04;101616.56;;;-5.96;75.04
59435;BME280;45241;49.768;8.636;2022-12-18T08:46:48;101604.94;;;-5.63;74.73
59435;BME280;45241;49.768;8.636;2022-12-18T08:49:13;101598.13;;;-5.67;76.56
59435;BME280;45241;49.768;8.636;2022-12-18T08:51:39;101589.72;;;-5.52;74.12
59435;BME280;45241;49.768;8.636;2022-12-18T08:54:04;101591.13;;;-5.43;74.09
59435;BME280;45241;49.768;8.636;2022-12-18T08:56:30;101590.84;;;-5.12;73.43
59435;BME280;45241;49.768;8.636;2022-12-18T08:58:55;101598.66;;;-7.16;80.52
59435;BME280;45241;49.768;8.636;2022-12-18T09:01:21;101585.53;;;-5.81;76.64
59435;BME280;45241;49.768;8.636;2022-12-18T09:03:46;101585.81;;;-5.40;74.82
59435;BME280;45241;49.768;8.636;2022-12-18T09:06:15;101585.72;;;-5.15;73.67
59435;BME280;45241;49.768;8.636;2022-12-18T09:08:41;101577.25;;;-4.98;73.01
59435;BME280;45241;49.768;8.636;2022-12-18T09:11:11;101566.72;;;-4.97;73.13
59435;BME280;45241;49.768;8.636;2022-12-18T09:13:37;101567.84;;;-5.04;73.63
59435;BME280;45241;49.768;8.636;2022-12-18T09:16:02;101562.56;;;-4.80;72.99
59435;BME280;45241;49.768;8.636;2022-12-18T09:18:28;101561.22;;;-6.33;78.05
59435;BME280;45241;49.768;8.636;2022-12-18T09:20:53;101570.63;;;-6.02;80.14
59435;BME280;45241;49.768;8.636;2022-12-18T09:23:18;101570.03;;;-4.49;76.21
59435;BME280;45241;49.768;8.636;2022-12-18T09:25:43;101583.63;;;-4.63;78.00
59435;BME280;45241;49.768;8.636;2022-12-18T09:28:10;101589.09;;;-5.83;80.21
59435;BME280;45241;49.768;8.636;2022-12-18T09:30:39;101589.25;;;-5.16;78.53
59435;BME280;45241;49.768;8.636;2022-12-18T09:33:04;101597.34;;;-4.78;80.52
59435;BME280;45241;49.768;8.636;2022-12-18T09:35:30;101605.09;;;-4.75;78.93
59435;BME280;45241;49.768;8.636;2022-12-18T09:37:55;101610.50;;;-4.58;77.38
59435;BME280;45241;49.768;8.636;2022-12-18T09:40:22;101604.56;;;-4.83;78.17
59435;BME280;45241;49.768;8.636;2022-12-18T09:42:55;101599.84;;;-3.13;75.04
59435;BME280;45241;49.768;8.636;2022-12-18T09:45:22;101593.31;;;-2.85;75.12
59435;BME280;45241;49.768;8.636;2022-12-18T09:47:48;101592.47;;;-3.04;73.57
59435;BME280;45241;49.768;8.636;2022-12-18T09:52:46;101599.59;;;-2.34;70.95
59435;BME280;45241;49.768;8.636;2022-12-18T09:55:17;101598.94;;;-3.51;74.27
59435;BME280;45241;49.768;8.636;2022-12-18T09:57:47;101601.28;;;-2.69;74.83
59435;BME280;45241;49.768;8.636;2022-12-18T10:00:21;101600.41;;;-2.51;73.95
59435;BME280;45241;49.768;8.636;2022-12-18T10:02:47;101607.47;;;-2.17;72.82
59435;BME280;45241;49.768;8.636;2022-12-18T10:05:16;101599.75;;;-2.37;73.23
59435;BME280;45241;49.768;8.636;2022-12-18T10:07:59;101594.34;;;-2.34;72.41
59435;BME280;45241;49.768;8.636;2022-12-18T10:10:46;101598.56;;;-2.49;72.45
59435;BME280;45241;49.768;8.636;2022-12-18T10:13:21;101600.56;;;-2.54;73.52
59435;BME280;45241;49.768;8.636;2022-12-18T10:21:18;101609.34;;;-3.10;78.38
59435;BME280;45241;49.768;8.636;2022-12-18T10:23:49;101615.88;;;-3.58;81.12
59435;BME280;45241;49.768;8.636;2022-12-18T10:26:18;101606.56;;;-3.65;85.30
59435;BME280;45241;49.768;8.636;2022-12-18T10:28:44;101593.38;;;-3.24;80.76
59435;BME280;45241;49.768;8.636;2022-12-18T10:31:17;101576.97;;;-2.02;77.54
59435;BME280;45241;49.768;8.636;2022-12-18T10:33:42;101579.47;;;-1.33;77.06
59435;BME280;45241;49.768;8.636;2022-12-18T10:36:08;101579.91;;;-2.26;78.98
59435;BME280;45241;49.768;8.636;2022-12-18T10:38:33;101583.16;;;-2.57;79.47
59435;BME280;45241;49.768;8.636;2022-12-18T10:43:25;101571.00;;;-1.22;75.78
59435;BME280;45241;49.768;8.636;2022-12-18T10:46:01;101556.84;;;-2.03;77.74
59435;BME280;45241;49.768;8.636;2022-12-18T10:48:27;101573.81;;;-2.98;82.53
59435;BME280;45241;49.768;8.636;2022-12-18T10:50:53;101578.66;;;-2.53;82.03
59435;BME280;45241;49.768;8.636;2022-12-18T10:53:20;101579.72;;;-3.31;82.06
59435;BME280;45241;49.768;8.636;2022-12-18T10:55:46;101584.59;;;-2.32;79.58
59435;BME280;45241;49.768;8.636;2022-12-18T10:58:26;101578.56;;;-3.25;82.75
59435;BME280;45241;49.768;8.636;2022-12-18T11:03:30;101578.47;;;-2.86;80.97
59435;BME280;45241;49.768;8.636;2022-12-18T11:06:29;101579.34;;;-2.50;83.86
59435;BME280;45241;49.768;8.636;2022-12-18T11:08:59;101591.16;;;-3.33;85.73
59435;BME280;45241;49.768;8.636;2022-12-18T11:11:25;101598.22;;;-2.24;82.30
59435;BME280;45241;49.768;8.636;2022-12-18T11:16:19;101572.06;;;-1.42;77.78
59435;BME280;45241;49.768;8.636;2022-12-18T11:18:44;101571.25;;;-1.60;76.43
59435;BME280;45241;49.768;8.636;2022-12-18T11:21:10;101563.69;;;-1.33;77.21
59435;BME280;45241;49.768;8.636;2022-12-18T11:23:37;101574.59;;;-1.41;78.22
59435;BME280;45241;49.768;8.636;2022-12-18T11:26:09;101581.69;;;-2.98;84.48
59435;BME280;45241;49.768;8.636;2022-12-18T11:28:45;101578.84;;;-3.13;84.91
59435;BME280;45241;49.768;8.636;2022-12-18T11:33:37;101590.06;;;-2.90;86.68
59435;BME280;45241;49.768;8.636;2022-12-18T11:36:03;101587.44;;;-3.67;89.32
59435;BME280;45241;49.768;8.636;2022-12-18T11:38:30;101601.13;;;-3.02;87.26
59435;BME280;45241;49.768;8.636;2022-12-18T11:43:27;101595.69;;;-2.62;85.37
59435;BME280;45241;49.768;8.636;2022-12-18T11:45:54;101589.84;;;-2.50;81.47
59435;BME280;45241;49.768;8.636;2022-12-18T11:48:22;101582.97;;;-3.26;86.05
59435;BME280;45241;49.768;8.636;2022-12-18T11:50:53;101571.69;;;-2.90;85.74
59435;BME280;45241;49.768;8.636;2022-12-18T11:53:19;101566.28;;;-1.82;80.71
59435;BME280;45241;49.768;8.636;2022-12-18T12:00:36;101556.38;;;-2.29;81.73
59435;BME280;45241;49.768;8.636;2022-12-18T12:03:12;101554.59;;;-3.37;86.73
59435;BME280;45241;49.768;8.636;2022-12-18T12:05:48;101568.75;;;-2.84;85.90
59435;BME280;45241;49.768;8.636;2022-12-18T12:19:37;101573.31;;;-1.82;79.71
59435;BME280;45241;49.768;8.636;2022-12-18T12:22:14;101566.50;;;-1.53;77.03
59435;BME280;45241;49.768;8.636;2022-12-18T12:24:54;101574.69;;;-2.44;81.65
59435;BME280;45241;49.768;8.636;2022-12-18T12:27:40;101575.34;;;-2.39;83.70
59435;BME280;45241;49.768;8.636;2022-12-18T12:30:11;101574.66;;;-2.79;84.18
59435;BME280;45241;49.768;8.636;2022-12-18T12:40:03;101552.56;;;-1.71;78.04
59435;BME280;45241;49.768;8.636;2022-12-18T12:45:23;101548.19;;;-2.74;83.68
59435;BME280;45241;49.768;8.636;2022-12-18T12:47:51;101540.31;;;-2.74;83.05
59435;BME280;45241;49.768;8.636;2022-12-18T12:50:18;101534.72;;;-2.86;83.88
59435;BME280;45241;49.768;8.636;2022-12-18T12:52:45;101538.31;;;-1.67;80.20
59435;BME280;45241;49.768;8.636;2022-12-18T12:55:18;101540.88;;;-2.33;79.75
59435;BME280;45241;49.768;8.636;2022-12-18T12:57:59;101554.00;;;-2.87;84.34
59435;BME280;45241;49.768;8.636;2022-12-18T13:00:27;101537.59;;;-2.04;82.50
59435;BME280;45241;49.768;8.636;2022-12-18T13:02:59;101536.84;;;-1.40;77.92
59435;BME280;45241;49.768;8.636;2022-12-18T13:07:59;101545.72;;;-2.96;83.78
59435;BME280;45241;49.768;8.636;2022-12-18T13:10:31;101541.47;;;-1.94;80.27
59435;BME280;45241;49.768;8.636;2022-12-18T13:12:58;101498.81;;;-1.99;78.60
59435;BME280;45241;49.768;8.636;2022-12-18T13:15:46;101498.16;;;-2.37;83.13
59435;BME280;45241;49.768;8.636;2022-12-18T13:20:39;101478.75;;;-2.17;80.50
59435;BME280;45241;49.768;8.636;2022-12-18T13:25:52;101467.19;;;-1.17;78.52
59435;BME280;45241;49.768;8.636;2022-12-18T13:30:57;101465.91;;;-2.06;84.33
59435;BME280;45241;49.768;8.636;2022-12-18T13:40:59;101453.19;;;-1.49;83.43
59435;BME280;45241;49.768;8.636;2022-12-18T13:43:29;101447.84;;;-1.63;80.62
59435;BME280;45241;49.768;8.636;2022-12-18T13:48:24;101458.19;;;-1.44;83.36
59435;BME280;45241;49.768;8.636;2022-12-18T13:50:52;101443.81;;;-2.52;85.95
59435;BME280;45241;49.768;8.636;2022-12-18T13:53:20;101453.94;;;-1.63;86.74
59435;BME280;45241;49.768;8.636;2022-12-18T13:55:46;101455.06;;;-3.02;89.19
59435;BME280;45241;49.768;8.636;2022-12-18T13:58:12;101449.44;;;-2.77;89.64
59435;BME280;45241;49.768;8.636;2022-12-18T14:00:41;101446.22;;;-2.65;89.98
59435;BME280;45241;49.768;8.636;2022-12-18T14:03:16;101457.16;;;-2.91;92.67
59435;BME280;45241;49.768;8.636;2022-12-18T14:05:43;101460.38;;;-2.86;91.85
59435;BME280;45241;49.768;8.636;2022-12-18T14:08:13;101451.44;;;-2.48;89.87
59435;BME280;45241;49.768;8.636;2022-12-18T14:10:42;101440.13;;;-1.50;85.01
59435;BME280;45241;49.768;8.636;2022-12-18T14:13:09;101435.59;;;-1.64;81.68
59435;BME280;45241;49.768;8.636;2022-12-18T14:15:36;101442.50;;;-1.62;81.85
59435;BME280;45241;49.768;8.636;2022-12-18T14:20:43;101443.00;;;-2.04;85.99